Time;durP1;ratioP1;P1;durP2;ratioP2;P2;SDS_P1;SDS_P2;PMS_P1;PMS_P2;Temp;Humidity;BMP_temperature;BMP_pressure;BME280_temperature;BME280_humidity;BME280_pressure;Samples;Min_cycle;Max_cycle;Signal;HPM_P1;HPM_P2
2023/03/16 00:00:48;;;;;;;;;;;;;;;4.69;72.65;99843.19;5084675;28;19940;-76
2023/03/16 00:03:18;;;;;;;;;;;;;;;4.81;71.27;99846.78;5082146;28;19920;-78
2023/03/16 00:05:46;;;;;;;;;;;;;;;4.80;70.59;99829.41;5081369;28;19924;-76
2023/03/16 00:08:11;;;;;;;;;;;;;;;4.70;71.28;99839.63;5081742;28;20345;-77
2023/03/16 00:10:37;;;;;;;;;;;;;;;4.72;71.58;99839.50;5064575;28;19995;-76
2023/03/16 00:13:02;;;;;;;;;;;;;;;4.70;71.78;99844.03;5082056;28;20392;-77
2023/03/16 00:15:28;;;;;;;;;;;;;;;4.83;72.24;99839.69;5086775;28;19920;-76
2023/03/16 00:17:54;;;;;;;;;;;;;;;4.83;71.81;99847.53;5083217;28;19967;-76
2023/03/16 00:20:19;;;;;;;;;;;;;;;4.74;71.94;99841.09;5085534;28;19927;-75
2023/03/16 00:22:45;;;;;;;;;;;;;;;4.73;72.25;99849.03;5086406;28;20014;-75
2023/03/16 00:25:11;;;;;;;;;;;;;;;4.53;75.25;99851.16;5085202;28;19921;-74
2023/03/16 00:27:37;;;;;;;;;;;;;;;4.56;74.90;99851.88;5083549;28;19924;-74
2023/03/16 00:30:03;;;;;;;;;;;;;;;4.65;74.03;99851.31;5086071;28;19996;-73
2023/03/16 00:32:31;;;;;;;;;;;;;;;4.49;73.90;99846.22;5082712;28;19981;-74
2023/03/16 00:34:56;;;;;;;;;;;;;;;4.40;73.82;99850.25;5086451;28;20402;-75
2023/03/16 00:37:22;;;;;;;;;;;;;;;4.49;73.09;99849.66;5082925;28;19999;-74
2023/03/16 00:39:50;;;;;;;;;;;;;;;4.46;72.84;99847.25;5067917;28;19967;-74
2023/03/16 00:42:16;;;;;;;;;;;;;;;4.61;72.32;99839.38;5084076;28;19920;-75
2023/03/16 00:44:41;;;;;;;;;;;;;;;4.68;71.99;99846.72;5084562;28;20011;-77
2023/03/16 00:47:07;;;;;;;;;;;;;;;4.78;69.82;99857.41;5085250;28;19971;-75
2023/03/16 00:49:34;;;;;;;;;;;;;;;4.88;68.12;99858.53;5064920;28;19920;-76
2023/03/16 00:52:03;;;;;;;;;;;;;;;4.86;66.08;99855.16;5089873;28;19920;-75
2023/03/16 00:54:31;;;;;;;;;;;;;;;4.86;66.97;99853.38;5082661;28;19924;-78
2023/03/16 00:56:57;;;;;;;;;;;;;;;4.45;69.54;99856.03;5067939;28;19931;-76
2023/03/16 00:59:25;;;;;;;;;;;;;;;3.86;72.71;99877.16;5082067;28;19921;-76
2023/03/16 01:01:54;;;;;;;;;;;;;;;3.69;74.41;99870.34;5085109;28;19927;-76
2023/03/16 01:04:19;;;;;;;;;;;;;;;3.57;76.79;99869.31;5082650;28;19936;-74
2023/03/16 01:06:45;;;;;;;;;;;;;;;3.22;80.44;99867.94;5086370;28;20018;-73
2023/03/16 01:09:11;;;;;;;;;;;;;;;3.04;82.79;99864.63;5083970;28;20018;-74
2023/03/16 01:11:36;;;;;;;;;;;;;;;2.98;84.85;99866.72;5083957;28;19927;-74
2023/03/16 01:14:02;;;;;;;;;;;;;;;2.95;85.73;99866.88;5064531;28;20653;-74
2023/03/16 01:16:28;;;;;;;;;;;;;;;3.19;84.13;99865.50;5085176;28;19927;-77
2023/03/16 01:18:55;;;;;;;;;;;;;;;3.39;82.80;99862.56;5081992;28;19921;-77
2023/03/16 01:21:22;;;;;;;;;;;;;;;3.47;82.29;99855.13;5085962;28;19966;-74
2023/03/16 01:23:48;;;;;;;;;;;;;;;3.67;80.68;99852.16;5065522;28;19920;-76
2023/03/16 01:26:16;;;;;;;;;;;;;;;3.77;80.92;99859.47;5065486;28;20007;-75
2023/03/16 01:28:43;;;;;;;;;;;;;;;3.85;80.83;99858.03;5065438;28;19920;-77
2023/03/16 01:31:10;;;;;;;;;;;;;;;4.07;78.67;99854.97;5065446;28;19928;-75
2023/03/16 01:33:36;;;;;;;;;;;;;;;4.09;78.98;99847.88;5082027;28;19920;-76
2023/03/16 01:36:06;;;;;;;;;;;;;;;3.85;80.27;99841.53;5066451;28;19930;-76
2023/03/16 01:38:40;;;;;;;;;;;;;;;3.50;83.41;99849.72;5065032;28;19920;-77
2023/03/16 01:41:06;;;;;;;;;;;;;;;3.54;84.29;99860.81;5065885;28;19920;-75
2023/03/16 01:43:33;;;;;;;;;;;;;;;3.69;85.53;99855.53;5081772;28;19920;-77
2023/03/16 01:45:59;;;;;;;;;;;;;;;3.68;86.61;99848.63;5084968;28;19920;-78
2023/03/16 01:48:25;;;;;;;;;;;;;;;3.88;85.51;99838.75;5081195;28;19936;-78
2023/03/16 01:50:51;;;;;;;;;;;;;;;3.79;86.45;99839.31;5087464;28;19920;-76
2023/03/16 01:53:18;;;;;;;;;;;;;;;3.65;87.71;99843.56;5082003;28;20406;-75
2023/03/16 01:55:43;;;;;;;;;;;;;;;3.55;89.09;99841.63;5064383;28;19928;-75
2023/03/16 01:58:09;;;;;;;;;;;;;;;3.67;88.84;99846.94;5062881;28;19920;-76
2023/03/16 02:00:35;;;;;;;;;;;;;;;3.71;87.39;99840.59;5060749;28;19924;-74
2023/03/16 02:03:15;;;;;;;;;;;;;;;3.60;85.91;99850.84;5062417;28;19931;-77
2023/03/16 02:06:07;;;;;;;;;;;;;;;3.77;85.08;99851.63;5066170;28;19986;-76
2023/03/16 02:08:34;;;;;;;;;;;;;;;3.82;83.57;99849.56;5085132;28;19972;-76
2023/03/16 02:11:03;;;;;;;;;;;;;;;3.78;83.39;99850.66;5063221;28;20383;-77
2023/03/16 02:13:39;;;;;;;;;;;;;;;3.74;83.94;99859.63;5082286;28;20284;-79
2023/03/16 02:16:06;;;;;;;;;;;;;;;3.71;83.48;99851.03;5067160;28;19920;-76
2023/03/16 02:18:32;;;;;;;;;;;;;;;3.39;83.53;99851.28;5066038;28;20289;-77
2023/03/16 02:20:57;;;;;;;;;;;;;;;3.27;84.87;99851.09;5065792;28;19931;-78
2023/03/16 02:23:24;;;;;;;;;;;;;;;3.06;86.59;99848.91;5090361;28;20388;-77
2023/03/16 02:26:00;;;;;;;;;;;;;;;2.95;88.06;99861.69;5085668;28;19924;-78
2023/03/16 02:28:34;;;;;;;;;;;;;;;2.86;88.69;99858.69;5096110;28;19920;-77
2023/03/16 02:31:01;;;;;;;;;;;;;;;3.03;87.56;99854.25;5080733;28;20273;-78
2023/03/16 02:33:27;;;;;;;;;;;;;;;3.16;86.59;99850.03;5065933;28;20007;-77
2023/03/16 02:35:53;;;;;;;;;;;;;;;2.97;86.62;99854.63;5065096;28;19960;-77
2023/03/16 02:38:20;;;;;;;;;;;;;;;3.03;86.25;99844.69;5080341;28;19935;-77
2023/03/16 02:40:58;;;;;;;;;;;;;;;3.20;85.84;99851.53;5091000;28;19924;-79
2023/03/16 02:43:26;;;;;;;;;;;;;;;3.27;84.46;99852.84;5045110;28;19936;-75
2023/03/16 02:46:04;;;;;;;;;;;;;;;3.03;85.39;99849.06;5066294;28;20023;-75
2023/03/16 02:48:41;;;;;;;;;;;;;;;3.16;84.96;99831.78;5061389;28;19981;-75
2023/03/16 02:51:07;;;;;;;;;;;;;;;3.31;84.31;99841.31;5063950;28;20392;-75
2023/03/16 02:53:32;;;;;;;;;;;;;;;3.35;83.84;99840.22;5080147;28;20020;-75
2023/03/16 02:56:01;;;;;;;;;;;;;;;3.33;84.19;99836.84;5065175;28;20307;-76
2023/03/16 02:58:29;;;;;;;;;;;;;;;3.32;84.34;99834.31;5061532;28;20376;-75
2023/03/16 03:00:55;;;;;;;;;;;;;;;3.36;84.18;99835.84;5080016;28;19928;-75
2023/03/16 03:03:21;;;;;;;;;;;;;;;3.37;84.16;99838.34;5065114;28;19943;-76
2023/03/16 03:05:46;;;;;;;;;;;;;;;3.47;83.31;99838.66;5081900;28;20384;-75
2023/03/16 03:08:12;;;;;;;;;;;;;;;3.29;83.35;99827.53;5081445;28;20016;-75
2023/03/16 03:10:37;;;;;;;;;;;;;;;3.09;84.43;99843.50;5080574;28;19920;-75
2023/03/16 03:13:03;;;;;;;;;;;;;;;3.14;84.69;99841.44;5082614;28;20059;-75
2023/03/16 03:15:28;;;;;;;;;;;;;;;3.20;84.61;99836.72;5061443;28;19920;-76
2023/03/16 03:18:03;;;;;;;;;;;;;;;2.92;84.88;99851.44;5062105;28;19931;-74
2023/03/16 03:20:29;;;;;;;;;;;;;;;3.01;84.79;99845.69;5072647;28;19984;-76
2023/03/16 03:22:55;;;;;;;;;;;;;;;3.15;83.28;99858.78;5083380;28;19967;-76
2023/03/16 03:25:21;;;;;;;;;;;;;;;3.05;82.92;99852.44;5082434;28;19920;-74
2023/03/16 03:27:47;;;;;;;;;;;;;;;3.19;82.48;99855.06;5066991;28;20364;-76
2023/03/16 03:30:17;;;;;;;;;;;;;;;3.11;83.21;99860.75;5080563;28;19920;-75
2023/03/16 03:32:43;;;;;;;;;;;;;;;3.14;83.73;99863.16;5083497;28;19921;-78
2023/03/16 03:35:11;;;;;;;;;;;;;;;3.13;84.22;99871.06;5064755;28;20264;-76
2023/03/16 03:37:37;;;;;;;;;;;;;;;3.14;84.74;99867.53;5062003;28;19920;-76
2023/03/16 03:40:05;;;;;;;;;;;;;;;3.07;85.86;99872.25;5064284;28;19920;-76
2023/03/16 03:42:30;;;;;;;;;;;;;;;2.97;86.58;99870.25;5061013;28;19960;-75
2023/03/16 03:44:55;;;;;;;;;;;;;;;2.79;88.88;99866.94;5083688;28;20449;-76
2023/03/16 03:47:21;;;;;;;;;;;;;;;2.84;89.01;99870.09;5080660;28;19925;-76
2023/03/16 03:49:47;;;;;;;;;;;;;;;2.58;90.59;99874.19;5071800;28;20019;-76
2023/03/16 03:52:12;;;;;;;;;;;;;;;2.41;92.32;99887.31;5066174;28;19943;-75
2023/03/16 03:54:38;;;;;;;;;;;;;;;2.46;92.30;99893.94;5066172;28;19920;-76
2023/03/16 03:57:07;;;;;;;;;;;;;;;2.32;94.08;99890.38;5067370;28;20367;-76
2023/03/16 03:59:33;;;;;;;;;;;;;;;2.28;94.67;99891.47;5083062;28;19921;-77
2023/03/16 04:02:17;;;;;;;;;;;;;;;2.11;96.41;99894.16;5080425;28;19919;-75
2023/03/16 04:04:48;;;;;;;;;;;;;;;2.04;97.65;99896.22;5088470;28;19931;-78
2023/03/16 04:07:14;;;;;;;;;;;;;;;2.19;97.26;99899.78;5071870;28;19924;-77
2023/03/16 04:09:40;;;;;;;;;;;;;;;2.31;96.28;99906.94;5069907;28;19920;-77
2023/03/16 04:12:09;;;;;;;;;;;;;;;2.37;96.10;99901.38;5067419;28;20007;-77
2023/03/16 04:14:35;;;;;;;;;;;;;;;2.50;95.68;99902.41;5083161;28;20001;-78
2023/03/16 04:17:05;;;;;;;;;;;;;;;2.57;94.94;99908.97;5085168;28;19973;-75
2023/03/16 04:19:32;;;;;;;;;;;;;;;2.65;94.52;99906.78;5064156;28;19932;-78
2023/03/16 04:21:58;;;;;;;;;;;;;;;2.68;93.84;99917.03;5067597;28;19920;-77
2023/03/16 04:24:24;;;;;;;;;;;;;;;2.57;93.03;99919.41;5086325;28;19920;-77
2023/03/16 04:26:49;;;;;;;;;;;;;;;2.57;93.42;99919.41;5084844;28;20665;-77
2023/03/16 04:29:18;;;;;;;;;;;;;;;2.57;94.24;99919.41;5065352;28;19943;-77
2023/03/16 04:31:44;;;;;;;;;;;;;;;2.60;94.18;99918.38;5084995;28;20402;-77
2023/03/16 04:34:12;;;;;;;;;;;;;;;2.71;93.13;99921.25;5070197;28;19924;-79
2023/03/16 04:36:38;;;;;;;;;;;;;;;2.72;92.95;99926.34;5064041;28;20295;-79
2023/03/16 04:39:04;;;;;;;;;;;;;;;2.74;92.45;99927.13;5059777;28;19924;-79
2023/03/16 04:41:30;;;;;;;;;;;;;;;2.69;92.64;99931.75;5084593;28;19927;-79
2023/03/16 04:44:10;;;;;;;;;;;;;;;2.72;92.83;99939.38;5064914;28;20023;-77
2023/03/16 04:46:36;;;;;;;;;;;;;;;2.59;94.47;99941.00;5083998;28;20197;-76
2023/03/16 04:49:08;;;;;;;;;;;;;;;2.54;94.35;99935.19;5067383;28;19920;-76
2023/03/16 04:51:35;;;;;;;;;;;;;;;2.23;97.16;99941.22;5062887;28;20395;-76
2023/03/16 04:54:07;;;;;;;;;;;;;;;2.30;97.01;99936.50;5070396;28;20006;-77
2023/03/16 04:56:34;;;;;;;;;;;;;;;2.26;96.88;99940.19;5067593;28;20026;-77
2023/03/16 04:59:04;;;;;;;;;;;;;;;2.31;96.30;99928.59;5066885;28;19978;-77
2023/03/16 05:01:39;;;;;;;;;;;;;;;2.33;96.07;99928.53;5072947;28;19920;-76
2023/03/16 05:04:05;;;;;;;;;;;;;;;2.30;96.43;99936.50;5082401;28;19934;-76
2023/03/16 05:06:34;;;;;;;;;;;;;;;2.37;95.82;99936.09;5087353;28;19924;-74
2023/03/16 05:09:01;;;;;;;;;;;;;;;2.34;95.89;99940.63;5068267;28;20296;-76
2023/03/16 05:11:27;;;;;;;;;;;;;;;2.34;95.99;99941.47;5098436;28;19924;-75
2023/03/16 05:13:57;;;;;;;;;;;;;;;2.21;96.77;99939.59;5066574;28;19924;-76
2023/03/16 05:16:24;;;;;;;;;;;;;;;2.22;97.29;99938.69;5083687;28;19972;-75
2023/03/16 05:18:51;;;;;;;;;;;;;;;2.32;96.36;99945.06;5063120;28;20011;-77
2023/03/16 05:21:17;;;;;;;;;;;;;;;2.29;96.92;99950.47;5064936;28;19924;-76
2023/03/16 05:23:55;;;;;;;;;;;;;;;2.13;98.15;99955.59;5062943;28;20269;-76
2023/03/16 05:26:21;;;;;;;;;;;;;;;2.24;97.54;99953.28;5083052;28;19920;-77
2023/03/16 05:28:46;;;;;;;;;;;;;;;2.14;98.40;99957.28;5081474;28;20013;-78
2023/03/16 05:31:14;;;;;;;;;;;;;;;1.90;99.75;99959.41;5064304;28;19924;-77
2023/03/16 05:33:45;;;;;;;;;;;;;;;1.86;100.00;99963.09;5067728;28;19924;-77
2023/03/16 05:36:16;;;;;;;;;;;;;;;1.94;99.67;99976.56;5064609;28;20015;-76
2023/03/16 05:38:44;;;;;;;;;;;;;;;1.79;100.00;99979.09;5079887;28;20405;-75
2023/03/16 05:41:17;;;;;;;;;;;;;;;1.56;100.00;99980.22;5064142;28;19967;-75
2023/03/16 05:43:57;;;;;;;;;;;;;;;1.70;100.00;99984.75;5062111;28;20007;-75
2023/03/16 05:46:26;;;;;;;;;;;;;;;1.82;100.00;99991.97;5065236;28;19946;-76
2023/03/16 05:48:52;;;;;;;;;;;;;;;1.88;100.00;99992.50;5070088;28;19924;-76
2023/03/16 05:51:19;;;;;;;;;;;;;;;1.92;99.85;100004.41;5069085;28;19920;-76
2023/03/16 05:53:45;;;;;;;;;;;;;;;1.89;100.00;99999.34;5096614;28;19959;-76
2023/03/16 05:56:19;;;;;;;;;;;;;;;2.00;99.28;99997.03;5066477;28;20011;-75
2023/03/16 05:58:47;;;;;;;;;;;;;;;2.06;99.31;99996.72;5066352;28;20400;-76
2023/03/16 06:01:14;;;;;;;;;;;;;;;2.11;98.43;100000.88;5065909;28;20388;-75
2023/03/16 06:03:40;;;;;;;;;;;;;;;1.75;100.00;100003.59;5072365;28;19963;-76
2023/03/16 06:06:09;;;;;;;;;;;;;;;1.68;100.00;100010.00;5067929;28;20405;-77
2023/03/16 06:08:45;;;;;;;;;;;;;;;1.60;100.00;100012.97;5067808;28;19931;-76
2023/03/16 06:11:12;;;;;;;;;;;;;;;1.46;100.00;100005.03;5064200;28;19972;-76
2023/03/16 06:13:39;;;;;;;;;;;;;;;1.48;100.00;99997.97;5067556;28;20380;-78
2023/03/16 06:16:07;;;;;;;;;;;;;;;1.47;100.00;100001.50;5064964;28;20035;-77
2023/03/16 06:18:34;;;;;;;;;;;;;;;1.63;100.00;100010.22;5099943;28;19920;-77
2023/03/16 06:21:00;;;;;;;;;;;;;;;1.77;100.00;100020.78;5083502;28;19955;-74
2023/03/16 06:23:26;;;;;;;;;;;;;;;1.96;100.00;100021.56;5090297;28;19921;-75
2023/03/16 06:25:58;;;;;;;;;;;;;;;2.03;100.00;100028.13;5063085;28;20320;-76
2023/03/16 06:28:26;;;;;;;;;;;;;;;2.00;100.00;100028.28;5081076;28;19927;-76
2023/03/16 06:30:52;;;;;;;;;;;;;;;2.10;100.00;100033.88;5063479;28;19920;-76
2023/03/16 06:33:18;;;;;;;;;;;;;;;2.09;100.00;100041.75;5047038;28;20344;-74
2023/03/16 06:35:44;;;;;;;;;;;;;;;2.25;100.00;100037.44;5081621;28;19935;-74
2023/03/16 06:38:15;;;;;;;;;;;;;;;2.26;100.00;100049.56;5065901;28;19920;-74
2023/03/16 06:40:56;;;;;;;;;;;;;;;2.29;100.00;100044.19;5065539;28;20364;-74
2023/03/16 06:43:25;;;;;;;;;;;;;;;2.41;100.00;100051.38;5063554;28;19928;-74
2023/03/16 06:45:51;;;;;;;;;;;;;;;2.57;100.00;100060.06;5063169;28;20332;-74
2023/03/16 06:48:16;;;;;;;;;;;;;;;2.66;100.00;100062.19;5065888;28;20015;-75
2023/03/16 06:50:46;;;;;;;;;;;;;;;2.62;100.00;100065.88;5061298;28;19953;-75
2023/03/16 06:53:15;;;;;;;;;;;;;;;2.65;100.00;100070.91;5068306;28;20018;-76
2023/03/16 06:55:41;;;;;;;;;;;;;;;2.62;100.00;100073.69;5081530;28;20026;-76
2023/03/16 06:58:07;;;;;;;;;;;;;;;2.65;100.00;100070.91;5062319;28;20019;-77
2023/03/16 07:00:32;;;;;;;;;;;;;;;2.78;100.00;100071.97;5077877;28;20024;-78
2023/03/16 07:02:58;;;;;;;;;;;;;;;2.85;100.00;100086.38;5063427;28;19920;-79
2023/03/16 07:05:24;;;;;;;;;;;;;;;2.97;100.00;100084.88;5064374;28;19924;-77
2023/03/16 07:07:50;;;;;;;;;;;;;;;3.17;99.56;100071.59;5061564;28;20005;-78
2023/03/16 07:10:16;;;;;;;;;;;;;;;3.25;99.38;100089.41;5065258;28;20025;-78
2023/03/16 07:12:42;;;;;;;;;;;;;;;3.29;99.29;100091.81;5078406;28;19920;-78
2023/03/16 07:15:08;;;;;;;;;;;;;;;3.51;98.49;100091.47;5062469;28;19935;-78
2023/03/16 07:17:34;;;;;;;;;;;;;;;3.59;97.53;100099.69;5063049;28;20390;-78
2023/03/16 07:20:04;;;;;;;;;;;;;;;3.84;96.35;100099.16;5063570;28;20396;-77
2023/03/16 07:22:31;;;;;;;;;;;;;;;3.87;95.65;100109.44;5084374;28;19974;-78
2023/03/16 07:24:58;;;;;;;;;;;;;;;4.06;94.24;100104.81;5065283;28;20097;-78
2023/03/16 07:27:25;;;;;;;;;;;;;;;4.34;92.68;100101.47;5079228;28;19928;-76
2023/03/16 07:29:51;;;;;;;;;;;;;;;4.51;91.38;100106.53;5063334;28;20387;-74
2023/03/16 07:32:17;;;;;;;;;;;;;;;4.72;91.17;100106.16;5079239;28;19924;-76
2023/03/16 07:34:44;;;;;;;;;;;;;;;4.86;90.03;100106.19;5061154;28;19924;-75
2023/03/16 07:37:10;;;;;;;;;;;;;;;4.97;88.41;100108.13;5081358;28;19973;-76
2023/03/16 07:39:37;;;;;;;;;;;;;;;5.05;87.71;100117.19;5080539;28;19920;-77
2023/03/16 07:42:07;;;;;;;;;;;;;;;5.15;87.51;100113.09;5079112;28;19962;-77
2023/03/16 07:45:05;;;;;;;;;;;;;;;5.42;86.65;100120.16;5052832;28;19942;-78
2023/03/16 07:47:32;;;;;;;;;;;;;;;5.46;85.61;100121.63;5062565;28;20351;-78
2023/03/16 07:50:02;;;;;;;;;;;;;;;5.43;85.83;100121.81;5060558;28;19920;-78
2023/03/16 07:52:29;;;;;;;;;;;;;;;5.38;85.31;100126.50;5064178;28;19924;-77
2023/03/16 07:54:55;;;;;;;;;;;;;;;5.39;85.95;100120.34;5068153;28;20612;-74
2023/03/16 07:57:21;;;;;;;;;;;;;;;5.67;84.63;100115.03;5063223;28;20002;-78
2023/03/16 07:59:46;;;;;;;;;;;;;;;5.93;83.04;100127.31;5084390;28;19932;-77
2023/03/16 08:02:15;;;;;;;;;;;;;;;5.94;82.44;100123.78;5080273;28;19963;-76
2023/03/16 08:04:41;;;;;;;;;;;;;;;6.13;82.43;100132.09;5069140;28;20329;-77
2023/03/16 08:07:08;;;;;;;;;;;;;;;6.23;82.11;100140.22;5062798;28;20300;-77
2023/03/16 08:09:47;;;;;;;;;;;;;;;6.26;81.56;100145.22;5064023;28;20463;-75
2023/03/16 08:12:19;;;;;;;;;;;;;;;6.38;81.44;100143.56;5063498;28;20368;-76
2023/03/16 08:14:45;;;;;;;;;;;;;;;6.52;80.82;100141.72;5067130;28;19967;-77
2023/03/16 08:17:30;;;;;;;;;;;;;;;6.74;79.58;100148.97;5062564;28;19916;-77
2023/03/16 08:19:57;;;;;;;;;;;;;;;6.88;78.38;100148.91;5066918;28;19931;-75
2023/03/16 08:22:24;;;;;;;;;;;;;;;7.06;77.82;100143.31;5067540;28;19920;-74
2023/03/16 08:24:50;;;;;;;;;;;;;;;7.21;76.55;100129.13;5086082;28;20399;-74
2023/03/16 08:27:18;;;;;;;;;;;;;;;7.31;75.62;100130.16;5085671;28;20365;-75
2023/03/16 08:29:50;;;;;;;;;;;;;;;7.50;74.92;100127.91;5067975;28;20043;-75
2023/03/16 08:32:17;;;;;;;;;;;;;;;7.64;74.02;100138.28;5095249;28;19920;-76
2023/03/16 08:34:42;;;;;;;;;;;;;;;7.59;74.09;100134.28;5083856;28;20461;-76
2023/03/16 08:37:28;;;;;;;;;;;;;;;7.73;74.38;100137.59;5081154;28;19929;-76
2023/03/16 08:39:54;;;;;;;;;;;;;;;7.87;73.68;100131.34;5096298;28;20353;-76
2023/03/16 08:42:21;;;;;;;;;;;;;;;8.01;73.17;100136.41;5065402;28;19921;-77
2023/03/16 08:44:54;;;;;;;;;;;;;;;8.05;72.83;100129.16;5047754;28;19952;-76
2023/03/16 08:47:23;;;;;;;;;;;;;;;7.98;72.93;100130.56;5065474;28;19947;-75
2023/03/16 08:49:49;;;;;;;;;;;;;;;7.99;73.89;100138.34;5081317;28;20004;-76
2023/03/16 08:52:15;;;;;;;;;;;;;;;8.11;73.71;100141.88;5064279;28;19920;-77
2023/03/16 08:54:42;;;;;;;;;;;;;;;8.21;73.30;100137.59;5082408;28;19924;-76
2023/03/16 08:57:09;;;;;;;;;;;;;;;8.30;73.91;100136.09;5084946;28;19920;-77
2023/03/16 08:59:35;;;;;;;;;;;;;;;8.42;73.92;100145.72;5080798;28;20445;-77
2023/03/16 09:02:00;;;;;;;;;;;;;;;8.48;73.25;100151.34;5084148;28;20398;-77
2023/03/16 09:04:27;;;;;;;;;;;;;;;8.54;72.73;100161.41;5083399;28;19958;-77
2023/03/16 09:06:52;;;;;;;;;;;;;;;8.62;71.88;100153.78;5080996;28;19920;-77
2023/03/16 09:09:18;;;;;;;;;;;;;;;8.77;71.83;100156.22;5083097;28;19924;-76
2023/03/16 09:11:44;;;;;;;;;;;;;;;8.87;70.91;100163.28;5082066;28;19930;-76
2023/03/16 09:14:10;;;;;;;;;;;;;;;9.00;70.70;100169.28;5081802;28;19932;-77
2023/03/16 09:16:37;;;;;;;;;;;;;;;9.05;68.44;100168.94;5065181;28;20341;-76
2023/03/16 09:19:02;;;;;;;;;;;;;;;9.02;67.69;100175.25;5062177;28;19928;-77
2023/03/16 09:21:28;;;;;;;;;;;;;;;9.06;66.26;100173.25;5083024;28;19920;-76
2023/03/16 09:23:55;;;;;;;;;;;;;;;9.12;66.27;100175.41;5080274;28;19920;-76
2023/03/16 09:26:21;;;;;;;;;;;;;;;9.16;66.32;100163.69;5082842;28;19973;-76
2023/03/16 09:28:46;;;;;;;;;;;;;;;9.26;66.43;100163.78;5081001;28;19924;-77
2023/03/16 09:31:16;;;;;;;;;;;;;;;9.34;65.57;100159.63;5082770;28;19927;-77
2023/03/16 09:33:42;;;;;;;;;;;;;;;9.37;64.18;100159.34;5080988;28;20388;-76
2023/03/16 09:36:10;;;;;;;;;;;;;;;9.29;62.24;100167.03;5080818;28;19924;-77
2023/03/16 09:38:36;;;;;;;;;;;;;;;9.38;62.00;100168.09;5083217;28;20007;-77
2023/03/16 09:41:22;;;;;;;;;;;;;;;9.47;62.04;100163.91;5080560;28;20004;-77
2023/03/16 09:43:54;;;;;;;;;;;;;;;9.57;61.24;100162.22;5073269;28;19931;-76
2023/03/16 09:46:19;;;;;;;;;;;;;;;9.59;61.65;100170.84;5080147;28;20280;-75
2023/03/16 09:48:46;;;;;;;;;;;;;;;9.67;61.27;100178.97;5063378;28;19931;-74
2023/03/16 09:51:30;;;;;;;;;;;;;;;9.71;62.70;100169.88;5081961;28;19920;-76
2023/03/16 09:53:58;;;;;;;;;;;;;;;9.78;62.63;100171.03;5083524;28;20007;-76
2023/03/16 09:56:36;;;;;;;;;;;;;;;9.79;60.97;100172.72;5086162;28;19964;-76
2023/03/16 09:59:09;;;;;;;;;;;;;;;9.82;61.08;100167.22;5085349;28;20406;-76
2023/03/16 10:01:39;;;;;;;;;;;;;;;9.83;60.55;100168.91;5066182;28;20393;-76
2023/03/16 10:04:20;;;;;;;;;;;;;;;9.90;60.84;100169.22;5080392;28;20337;-75
2023/03/16 10:07:03;;;;;;;;;;;;;;;9.94;59.69;100168.88;5081007;28;20295;-76
2023/03/16 10:09:28;;;;;;;;;;;;;;;10.03;60.34;100170.75;5083316;28;19920;-76
2023/03/16 10:11:56;;;;;;;;;;;;;;;10.11;60.24;100168.34;5080184;28;19928;-76
2023/03/16 10:14:25;;;;;;;;;;;;;;;10.18;60.16;100164.28;5064996;28;19977;-76
2023/03/16 10:16:53;;;;;;;;;;;;;;;10.23;60.64;100169.19;5083741;28;19966;-76
2023/03/16 10:19:37;;;;;;;;;;;;;;;10.20;59.07;100178.16;5081216;28;19926;-77
2023/03/16 10:22:11;;;;;;;;;;;;;;;10.27;58.38;100174.06;5086803;28;20358;-77
2023/03/16 10:24:56;;;;;;;;;;;;;;;10.31;56.84;100174.63;5080317;28;19927;-77
2023/03/16 10:27:27;;;;;;;;;;;;;;;10.40;57.28;100173.91;5083157;28;19928;-77
2023/03/16 10:29:52;;;;;;;;;;;;;;;10.49;55.42;100173.13;5080864;28;19935;-77
2023/03/16 10:32:18;;;;;;;;;;;;;;;10.49;53.08;100172.28;5083370;28;19921;-77
2023/03/16 10:35:07;;;;;;;;;;;;;;;10.51;53.16;100167.72;5080883;28;19920;-77
2023/03/16 10:37:32;;;;;;;;;;;;;;;10.59;52.89;100168.78;5050337;28;19916;-77
2023/03/16 10:39:59;;;;;;;;;;;;;;;10.57;48.37;100167.22;5078903;28;19962;-77
2023/03/16 10:42:26;;;;;;;;;;;;;;;10.65;46.57;100162.16;5079258;28;19916;-77
2023/03/16 10:44:58;;;;;;;;;;;;;;;10.66;46.18;100169.09;5081509;28;21297;-77
2023/03/16 10:47:27;;;;;;;;;;;;;;;10.76;47.13;100159.44;5095180;28;19916;-77
2023/03/16 10:49:52;;;;;;;;;;;;;;;10.83;46.48;100165.88;5081746;28;19974;-77
2023/03/16 10:52:32;;;;;;;;;;;;;;;10.93;44.50;100166.78;5081072;28;19920;-76
2023/03/16 10:54:57;;;;;;;;;;;;;;;11.03;43.17;100167.66;5084712;28;20313;-78
2023/03/16 10:57:24;;;;;;;;;;;;;;;11.05;38.89;100173.66;5081408;28;19920;-78
2023/03/16 10:59:51;;;;;;;;;;;;;;;11.14;40.13;100181.75;5084289;28;19973;-75
2023/03/16 11:02:19;;;;;;;;;;;;;;;11.21;41.37;100173.16;5087062;28;19920;-76
2023/03/16 11:04:45;;;;;;;;;;;;;;;11.29;42.87;100177.81;5084072;28;20306;-78
2023/03/16 11:07:22;;;;;;;;;;;;;;;11.37;43.59;100181.44;5086195;28;20003;-78
2023/03/16 11:09:49;;;;;;;;;;;;;;;11.37;43.64;100175.31;5082363;28;20650;-78
2023/03/16 11:12:27;;;;;;;;;;;;;;;11.38;44.42;100177.00;5082651;28;20230;-77
2023/03/16 11:14:53;;;;;;;;;;;;;;;11.46;44.52;100179.81;5101404;28;19920;-77
2023/03/16 11:17:37;;;;;;;;;;;;;;;11.60;43.48;100171.53;5081537;28;19980;-78
2023/03/16 11:20:11;;;;;;;;;;;;;;;11.75;43.86;100170.22;5094977;28;19920;-79
2023/03/16 11:22:37;;;;;;;;;;;;;;;11.85;45.64;100168.41;5082812;28;19922;-76
2023/03/16 11:25:04;;;;;;;;;;;;;;;11.86;43.47;100162.16;5079302;28;19920;-76
2023/03/16 11:27:47;;;;;;;;;;;;;;;11.88;43.56;100160.22;5081681;28;19922;-77
2023/03/16 11:30:13;;;;;;;;;;;;;;;11.93;43.18;100156.31;5080343;28;20326;-76
2023/03/16 11:32:40;;;;;;;;;;;;;;;11.98;42.61;100154.09;5080628;28;19973;-76
2023/03/16 11:35:17;;;;;;;;;;;;;;;12.02;41.00;100156.31;5079053;28;19920;-76
2023/03/16 11:38:01;;;;;;;;;;;;;;;12.06;40.34;100151.63;5080525;28;19923;-77
2023/03/16 11:40:33;;;;;;;;;;;;;;;12.21;40.93;100152.88;5082522;28;19920;-76
2023/03/16 11:43:03;;;;;;;;;;;;;;;12.40;39.98;100147.59;5083174;28;19916;-76
2023/03/16 11:45:42;;;;;;;;;;;;;;;12.57;40.44;100140.75;5083369;28;20298;-76
2023/03/16 11:48:16;;;;;;;;;;;;;;;12.73;39.77;100135.69;5079936;28;19920;-76
2023/03/16 11:50:54;;;;;;;;;;;;;;;12.90;39.79;100137.59;5080750;28;19924;-76
2023/03/16 11:53:22;;;;;;;;;;;;;;;13.04;39.69;100138.97;5081502;28;20360;-76
2023/03/16 11:55:48;;;;;;;;;;;;;;;13.11;39.10;100140.06;5081381;28;20088;-76
2023/03/16 11:58:27;;;;;;;;;;;;;;;13.16;38.49;100127.25;5083525;28;20424;-77
2023/03/16 12:00:58;;;;;;;;;;;;;;;13.12;38.24;100125.88;5062393;28;20308;-76
2023/03/16 12:03:42;;;;;;;;;;;;;;;13.16;38.12;100124.59;5081057;28;19920;-76
2023/03/16 12:06:19;;;;;;;;;;;;;;;13.25;36.87;100126.38;5078208;28;20272;-77
2023/03/16 12:08:56;;;;;;;;;;;;;;;13.30;36.11;100118.81;5067977;28;19930;-76
2023/03/16 12:11:29;;;;;;;;;;;;;;;13.28;34.27;100114.66;5088209;28;20508;-76
2023/03/16 12:13:59;;;;;;;;;;;;;;;13.40;34.48;100114.31;5085374;28;19927;-76
2023/03/16 12:16:32;;;;;;;;;;;;;;;13.59;34.47;100112.53;5087444;28;20394;-76
2023/03/16 12:19:00;;;;;;;;;;;;;;;13.80;33.48;100105.13;5087644;28;19947;-76
2023/03/16 12:21:30;;;;;;;;;;;;;;;13.85;34.18;100100.22;5082071;28;19920;-75
2023/03/16 12:23:58;;;;;;;;;;;;;;;13.78;34.11;100096.50;5085820;28;19959;-76
2023/03/16 12:26:28;;;;;;;;;;;;;;;13.72;34.29;100095.28;5083737;28;19927;-77
2023/03/16 12:28:55;;;;;;;;;;;;;;;13.84;33.95;100095.91;5090234;28;19973;-76
2023/03/16 12:31:32;;;;;;;;;;;;;;;14.02;33.94;100103.88;5088033;28;19943;-76
2023/03/16 12:34:18;;;;;;;;;;;;;;;14.07;33.63;100097.13;5086014;28;20264;-77
2023/03/16 12:36:49;;;;;;;;;;;;;;;14.24;33.68;100093.63;5085982;28;20806;-77
2023/03/16 12:39:15;;;;;;;;;;;;;;;14.45;33.38;100089.84;5084689;28;19927;-76
2023/03/16 12:41:54;;;;;;;;;;;;;;;14.65;32.15;100083.34;5067210;28;19920;-76
2023/03/16 12:44:25;;;;;;;;;;;;;;;14.81;31.85;100074.63;5083792;28;19920;-76
2023/03/16 12:46:58;;;;;;;;;;;;;;;14.88;30.76;100081.84;5081724;28;19920;-74
2023/03/16 12:49:24;;;;;;;;;;;;;;;14.93;31.35;100076.03;5080822;28;19947;-77
2023/03/16 12:52:03;;;;;;;;;;;;;;;15.07;32.44;100073.63;5083209;28;19920;-76
2023/03/16 12:54:29;;;;;;;;;;;;;;;15.23;31.65;100062.22;5084893;28;19921;-77
2023/03/16 12:57:05;;;;;;;;;;;;;;;15.28;31.12;100072.38;5081370;28;19927;-75